Das ist die Wetter- und Hausseite der Bittkau's aus Magdeburg Ottersleben


Hier werden aktuelle Daten aus der privaten Wetterstation und

andere lokale Wettervorhersagen bereitgestellt




Thunder radar more information blitzortung!


Rain radar more information rain snow radar



Es ist keine erhöhte Aufmerksamkeit aufgrund des Wetters notwendig.    Es gibt keine Warnungen.

METAR-Meldungen aus der Umgebung

   
EDDP - Leipzig
Aktualisierung: 02.06.2020 7:20
Klar  
Klar  
   Wind: Norden 11.1 km/h
Wind: Norden 11.1 km/h
Temperatur: 14°C
Taupunkt: 7°C
Luftfeuchte: 63%
Luftdruck: 1021 hPa
Sichtbarkeit: More than 10 km
Bewölkung: Klar
EDDP 020520Z 01006KT CAVOK 14/07 Q1021 NOSIG
EDDC - Dresden
Aktualisierung: 02.06.2020 7:20
Klar  
Klar  
   Wind: Norden 9.3 km/h
Wind: Norden 9.3 km/h
Temperatur: 13°C
Taupunkt: 7°C
Luftfeuchte: 67%
Luftdruck: 1020 hPa
Sichtbarkeit: More than 10 km
Bewölkung: Klar
EDDC 020520Z 35005KT 310V020 CAVOK 13/07 Q1020 NOSIG
EDDE - Erfurt
Aktualisierung: 02.06.2020 7:20
Klar  
Klar  
   Wind: variiert 3.7 km/h
Wind: variiert 3.7 km/h
Temperatur: 14°C
Taupunkt: 7°C
Luftfeuchte: 63%
Luftdruck: 1021 hPa
Sichtbarkeit: More than 10 km
Bewölkung: Klar
EDDE 020520Z VRB02KT CAVOK 14/07 Q1021 NOSIG
EDVE - Braunschweig
Aktualisierung: 01.06.2020 5:50
Nicht aktuell
Klar  
Klar  
   Wind: Osten 14.8 km/h
Wind: Osten 14.8 km/h
Temperatur: 24°C
Taupunkt: 5°C
Luftfeuchte: 29%
Luftdruck: 1022 hPa
Sichtbarkeit: More than 10 km
Bewölkung: Klar
EDVE 011550Z 10008KT 080V140 CAVOK 24/05 Q1022
EDDV - Hannover
Aktualisierung: 02.06.2020 7:20
Klar  
Klar  
   Wind: Osten 9.3 km/h
Wind: Osten 9.3 km/h
Temperatur: 15°C
Taupunkt: 7°C
Luftfeuchte: 59%
Luftdruck: 1021 hPa
Sichtbarkeit: More than 10 km
Bewölkung: Klar
EDDV 020520Z 10005KT 070V150 CAVOK 15/07 Q1021 NOSIG
EDDT - Berlin
Aktualisierung: 02.06.2020 7:20
Klar  
Klar  
   Wind: variiert 5.6 km/h
Wind: variiert 5.6 km/h
Temperatur: 16°C
Taupunkt: 7°C
Luftfeuchte: 55%
Luftdruck: 1020 hPa
Sichtbarkeit: More than 10 km
Bewölkung: Klar
EDDT 020520Z VRB03KT CAVOK 16/07 Q1020 NOSIG
EDDE - Schwerin
Aktualisierung: 02.06.2020 7:20
Klar  
Klar  
   Wind: variiert 3.7 km/h
Wind: variiert 3.7 km/h
Temperatur: 14°C
Taupunkt: 7°C
Luftfeuchte: 63%
Luftdruck: 1021 hPa
Sichtbarkeit: More than 10 km
Bewölkung: Klar
EDDE 020520Z VRB02KT CAVOK 14/07 Q1021 NOSIG
EDHI - Hamburg
Aktualisierung: 02.06.2020 7:20
Klar  
Klar  
   Wind: variiert 3.7 km/h
Wind: variiert 3.7 km/h
Temperatur: 17°C
Taupunkt: 7°C
Luftfeuchte: 52%
Luftdruck: 1021 hPa
Sichtbarkeit: More than 10 km
Bewölkung: Klar
EDHI 020520Z VRB02KT CAVOK 17/07 Q1021
EDDK - Köln-Bonn
Aktualisierung: 02.06.2020 7:20
Klar  
Klar  
   Wind: variiert 3.7 km/h
Wind: variiert 3.7 km/h
Temperatur: 17°C
Taupunkt: 8°C
Luftfeuchte: 56%
Luftdruck: 1019 hPa
Sichtbarkeit: More than 10 km
Bewölkung: Klar
EDDK 020520Z VRB02KT CAVOK 17/08 Q1019 NOSIG
EDHL - Lübeck-Blankensee
Aktualisierung: 02.06.2020 7:20
Klar  
Klar  
   Wind: variiert 1.9 km/h
Wind: variiert 1.9 km/h
Temperatur: 14°C
Taupunkt: 9°C
Luftfeuchte: 72%
Luftdruck: 1022 hPa
Sichtbarkeit: More than 10 km
Bewölkung: Klar
EDHL 020520Z VRB01KT CAVOK 14/09 Q1022
  

Script entwickelt von  Saratoga-weather.org Angepasst für das Template von  Weerstation Leuven

Sie finden die Wetterinfo auch auf:

Wetternetzwerk Deutschland

European Weather Network

Weather Underground

Regionalwetter-SA

wetter.com

wxforum.de

Genutzte Hardware, Software und WEB Anbieter:

Wetterstation
Ventus W928-Ultimate

Wetterprogramm
Meteohub

WetterComputer
RaspberryPI

Anbieter
WEB Provider One.com

Ventus W928-Ultimate

Meteohub

RaspberryPI

WEB Provider One.com